createdAt,value
2019-04-21T00:00:58.694Z,14.03
2019-04-21T00:03:34.766Z,14.80
2019-04-21T00:06:18.368Z,14.33
2019-04-21T00:08:48.773Z,14.03
2019-04-21T00:11:25.018Z,13.73
2019-04-21T00:13:47.025Z,15.00
2019-04-21T00:16:10.287Z,15.10
2019-04-21T00:18:54.870Z,14.67
2019-04-21T00:21:26.705Z,14.80
2019-04-21T00:24:20.248Z,14.83
2019-04-21T00:26:57.427Z,14.77
2019-04-21T00:29:37.999Z,16.60
2019-04-21T00:32:03.124Z,16.73
2019-04-21T00:34:17.838Z,17.77
2019-04-21T00:36:59.659Z,16.93
2019-04-21T00:42:09.799Z,17.80
2019-04-21T00:44:33.024Z,18.13
2019-04-21T00:47:13.971Z,16.63
2019-04-21T00:49:54.928Z,18.17
2019-04-21T00:53:03.547Z,18.00
2019-04-21T00:55:38.628Z,18.83
2019-04-21T00:58:10.493Z,17.97
2019-04-21T01:00:42.944Z,17.77
2019-04-21T01:03:14.681Z,18.53
2019-04-21T01:05:47.246Z,19.90
2019-04-21T01:08:15.818Z,22.77
2019-04-21T01:10:40.932Z,22.17
2019-04-21T01:13:21.710Z,18.90
2019-04-21T01:15:53.053Z,18.87
2019-04-21T01:18:20.980Z,17.73
2019-04-21T01:20:33.894Z,17.73
2019-04-21T01:23:04.336Z,16.97
2019-04-21T01:25:41.512Z,18.00
2019-04-21T01:28:24.600Z,17.27
2019-04-21T01:30:57.287Z,17.47
2019-04-21T01:33:34.904Z,15.90
2019-04-21T01:35:58.385Z,16.87
2019-04-21T01:38:44.340Z,17.73
2019-04-21T01:41:11.346Z,15.27
2019-04-21T01:43:33.718Z,17.43
2019-04-21T01:46:10.709Z,16.83
2019-04-21T01:48:37.483Z,18.10
2019-04-21T01:51:08.533Z,18.03
2019-04-21T01:54:03.553Z,20.43
2019-04-21T01:56:40.183Z,21.03
2019-04-21T01:59:01.541Z,22.87
2019-04-21T02:01:46.105Z,22.43
2019-04-21T02:04:24.562Z,20.53
2019-04-21T02:06:50.388Z,17.37
2019-04-21T02:09:23.203Z,20.23
2019-04-21T02:11:54.838Z,19.23
2019-04-21T02:14:31.156Z,18.30
2019-04-21T02:16:59.309Z,18.83
2019-04-21T02:19:26.636Z,19.13
2019-04-21T02:21:55.292Z,20.10
2019-04-21T02:24:45.154Z,20.63
2019-04-21T02:27:07.101Z,23.10
2019-04-21T02:29:40.892Z,20.63
2019-04-21T02:32:21.707Z,22.27
2019-04-21T02:39:57.389Z,20.13
2019-04-21T02:42:32.898Z,19.27
2019-04-21T02:50:09.569Z,18.20
2019-04-21T02:52:39.292Z,15.47
2019-04-21T02:55:15.618Z,17.20
2019-04-21T02:57:41.526Z,16.93
2019-04-21T03:00:13.647Z,17.43
2019-04-21T03:06:24.931Z,15.90
2019-04-21T03:08:50.060Z,15.67
2019-04-21T03:11:11.918Z,18.20
2019-04-21T03:13:46.960Z,20.47
2019-04-21T03:23:54.105Z,24.20
2019-04-21T03:26:28.543Z,26.43
2019-04-21T03:28:56.297Z,25.57
2019-04-21T03:31:55.486Z,21.20
2019-04-21T03:36:47.690Z,19.17
2019-04-21T03:39:01.224Z,20.67
2019-04-21T03:41:37.762Z,17.73
2019-04-21T03:44:12.311Z,18.80
2019-04-21T03:46:41.886Z,18.43
2019-04-21T03:54:19.604Z,19.23
2019-04-21T03:59:14.250Z,17.73
2019-04-21T04:02:18.896Z,17.50
2019-04-21T04:05:08.155Z,14.60
2019-04-21T04:07:55.116Z,14.40
2019-04-21T04:12:46.969Z,19.23
2019-04-21T04:15:29.003Z,19.17
2019-04-21T04:17:46.768Z,19.90
2019-04-21T04:22:55.447Z,18.30
2019-04-21T04:25:25.355Z,19.13
2019-04-21T04:30:35.732Z,16.43
2019-04-21T04:32:56.637Z,20.67
2019-04-21T04:35:48.996Z,16.87
2019-04-21T04:38:08.623Z,17.03
2019-04-21T04:40:51.703Z,17.07
2019-04-21T04:45:54.059Z,19.00
2019-04-21T04:48:20.324Z,17.50
2019-04-21T04:50:55.487Z,18.37
2019-04-21T04:53:34.648Z,17.27
2019-04-21T04:56:00.912Z,17.50
2019-04-21T04:58:54.587Z,17.40
2019-04-21T05:01:21.642Z,17.90
2019-04-21T05:03:44.510Z,15.50
2019-04-21T05:09:14.794Z,15.07
2019-04-21T05:14:07.581Z,14.17
2019-04-21T05:19:20.227Z,14.67
2019-04-21T05:21:39.404Z,13.67
2019-04-21T05:24:01.351Z,12.47
2019-04-21T05:26:36.024Z,12.67
2019-04-21T05:29:01.975Z,12.33
2019-04-21T05:31:54.782Z,12.23
2019-04-21T05:34:26.850Z,11.40
2019-04-21T05:37:14.265Z,10.63
2019-04-21T05:39:52.287Z,9.83
2019-04-21T05:42:27.228Z,10.60
2019-04-21T05:45:12.711Z,10.77
2019-04-21T05:47:46.313Z,10.17
2019-04-21T05:50:16.592Z,10.13
2019-04-21T05:52:44.715Z,9.67
2019-04-21T05:55:34.085Z,10.10
2019-04-21T05:57:57.297Z,10.77
2019-04-21T06:00:52.919Z,9.53
2019-04-21T06:03:10.083Z,9.53
2019-04-21T06:05:53.439Z,10.43
2019-04-21T06:08:13.217Z,10.10
2019-04-21T06:10:47.506Z,11.13
2019-04-21T06:13:24.398Z,9.87
2019-04-21T06:15:54.774Z,8.87
2019-04-21T06:18:20.186Z,9.13
2019-04-21T06:20:55.113Z,8.50
2019-04-21T06:23:27.049Z,7.27
2019-04-21T06:26:14.840Z,8.43
2019-04-21T06:28:31.775Z,8.00
2019-04-21T06:33:36.064Z,7.20
2019-04-21T06:44:01.425Z,7.40
2019-04-21T06:49:02.617Z,7.43
2019-04-21T06:51:48.202Z,7.80
2019-04-21T06:54:09.535Z,7.93
2019-04-21T06:56:40.971Z,7.50
2019-04-21T06:59:09.639Z,6.23
2019-04-21T07:04:31.227Z,5.93
2019-04-21T07:06:52.049Z,6.63
2019-04-21T07:09:26.673Z,5.83
2019-04-21T07:11:53.843Z,6.57
2019-04-21T07:14:32.085Z,5.90
2019-04-21T07:17:09.419Z,5.87
2019-04-21T07:19:34.710Z,6.20
2019-04-21T07:22:03.182Z,5.77
2019-04-21T07:24:37.298Z,6.10
2019-04-21T07:27:10.209Z,5.97
2019-04-21T07:29:50.626Z,5.07
2019-04-21T07:32:12.425Z,4.73
2019-04-21T07:34:49.847Z,4.43
2019-04-21T07:37:12.572Z,4.63
2019-04-21T07:39:43.939Z,3.97
2019-04-21T07:42:13.371Z,3.80
2019-04-21T07:44:45.959Z,3.37
2019-04-21T07:47:26.488Z,3.53
2019-04-21T07:50:14.362Z,3.87
2019-04-21T07:53:07.025Z,3.70
2019-04-21T07:58:11.173Z,3.50
2019-04-21T08:00:51.200Z,4.03
2019-04-21T08:03:14.233Z,3.30
2019-04-21T08:05:45.758Z,3.23
2019-04-21T08:08:12.083Z,3.30
2019-04-21T08:10:47.085Z,3.30
2019-04-21T08:13:28.927Z,3.53
2019-04-21T08:15:52.993Z,3.27
2019-04-21T08:18:28.314Z,3.07
2019-04-21T08:20:53.438Z,3.10
2019-04-21T08:23:31.751Z,3.07
2019-04-21T08:26:06.099Z,2.90
2019-04-21T08:28:31.942Z,2.87
2019-04-21T08:31:10.277Z,2.70
2019-04-21T08:33:47.082Z,3.13
2019-04-21T08:36:19.309Z,2.60
2019-04-21T08:38:46.002Z,2.97
2019-04-21T08:41:17.055Z,2.57
2019-04-21T08:46:20.152Z,2.80
2019-04-21T08:48:52.802Z,2.75
2019-04-21T08:51:28.931Z,2.53
2019-04-21T08:53:53.564Z,2.93
2019-04-21T08:56:30.409Z,2.83
2019-04-21T08:59:31.478Z,3.70
2019-04-21T09:02:06.271Z,3.70
2019-04-21T09:04:33.945Z,2.73
2019-04-21T09:07:12.946Z,2.50
2019-04-21T09:09:41.629Z,2.50
2019-04-21T09:12:15.065Z,3.05
2019-04-21T09:14:51.244Z,2.85
2019-04-21T09:17:16.387Z,2.95
2019-04-21T09:22:28.335Z,2.27
2019-04-21T09:24:56.017Z,2.22
2019-04-21T09:27:27.864Z,2.50
2019-04-21T09:29:51.662Z,2.62
2019-04-21T09:32:20.255Z,2.37
2019-04-21T09:34:49.275Z,2.22
2019-04-21T09:37:36.705Z,2.40
2019-04-21T09:39:55.177Z,1.92
2019-04-21T09:42:33.290Z,2.55
2019-04-21T09:44:59.459Z,2.62
2019-04-21T09:47:37.472Z,2.42
2019-04-21T09:50:01.872Z,1.90
2019-04-21T09:52:40.884Z,1.85
2019-04-21T09:55:10.087Z,1.40
2019-04-21T09:57:43.277Z,1.85
2019-04-21T10:00:18.257Z,2.00
2019-04-21T10:02:51.610Z,2.10
2019-04-21T10:05:14.542Z,2.50
2019-04-21T10:07:44.762Z,2.00
2019-04-21T10:10:15.263Z,1.95
2019-04-21T10:12:45.513Z,2.02
2019-04-21T10:15:16.571Z,1.90
2019-04-21T10:18:00.553Z,2.65
2019-04-21T10:20:30.960Z,2.00
2019-04-21T10:23:01.064Z,2.58
2019-04-21T10:25:32.398Z,2.00
2019-04-21T10:28:03.326Z,2.12
2019-04-21T10:30:34.762Z,2.02
2019-04-21T10:33:06.157Z,2.08
2019-04-21T10:35:37.046Z,1.87
2019-04-21T10:38:20.080Z,2.05
2019-04-21T10:40:41.255Z,2.27
2019-04-21T10:43:13.734Z,1.87
2019-04-21T10:45:43.505Z,2.00
2019-04-21T10:48:14.694Z,2.80
2019-04-21T10:50:45.409Z,2.20
2019-04-21T10:53:23.014Z,1.90
2019-04-21T10:56:06.406Z,1.45
2019-04-21T10:58:32.032Z,1.82
2019-04-21T11:01:08.448Z,2.00
2019-04-21T11:03:44.631Z,1.87
2019-04-21T11:06:18.778Z,2.12
2019-04-21T11:08:53.899Z,1.98
2019-04-21T11:11:23.916Z,1.60
2019-04-21T11:13:54.848Z,1.70
2019-04-21T11:16:26.982Z,1.67
2019-04-21T11:18:57.939Z,2.25
2019-04-21T11:21:29.213Z,2.10
2019-04-21T11:23:59.398Z,1.62
2019-04-21T11:26:29.920Z,1.70
2019-04-21T11:29:01.089Z,2.02
2019-04-21T11:31:31.369Z,2.20
2019-04-21T11:34:01.521Z,1.82
2019-04-21T11:36:31.686Z,2.22
2019-04-21T11:39:30.739Z,1.62
2019-04-21T11:41:51.989Z,2.00
2019-04-21T11:44:24.615Z,1.90
2019-04-21T11:46:56.380Z,1.80
2019-04-21T11:49:31.982Z,1.80
2019-04-21T11:52:00.783Z,1.60
2019-04-21T11:54:31.094Z,1.77
2019-04-21T11:57:11.801Z,1.82
2019-04-21T11:59:35.622Z,1.92
2019-04-21T12:02:07.722Z,1.70
2019-04-21T12:04:39.295Z,1.80
2019-04-21T12:07:09.566Z,1.55
2019-04-21T12:09:39.802Z,1.37
2019-04-21T12:12:10.032Z,1.77
2019-04-21T12:14:40.187Z,1.80
2019-04-21T12:17:10.357Z,1.70
2019-04-21T12:19:40.890Z,1.60
2019-04-21T12:22:20.192Z,1.77
2019-04-21T12:24:43.176Z,1.75
2019-04-21T12:27:14.055Z,1.55
2019-04-21T12:29:44.301Z,1.57
2019-04-21T12:32:33.868Z,1.50
2019-04-21T12:35:06.006Z,1.50
2019-04-21T12:37:42.819Z,1.80
2019-04-21T12:40:14.763Z,2.10
2019-04-21T12:42:45.522Z,1.62
2019-04-21T12:45:17.297Z,1.72
2019-04-21T12:47:57.959Z,1.47
2019-04-21T12:50:27.792Z,1.60
2019-04-21T12:52:58.025Z,1.77
2019-04-21T12:55:36.631Z,1.90
2019-04-21T12:58:03.479Z,1.70
2019-04-21T13:00:33.805Z,1.52
2019-04-21T13:03:04.052Z,1.30
2019-04-21T13:05:39.868Z,1.50
2019-04-21T13:08:09.353Z,1.40
2019-04-21T13:10:40.202Z,1.60
2019-04-21T13:13:10.452Z,1.40
2019-04-21T13:15:40.631Z,1.50
2019-04-21T13:18:12.230Z,1.60
2019-04-21T13:20:42.571Z,1.77
2019-04-21T13:23:13.840Z,1.70
2019-04-21T13:25:44.012Z,1.70
2019-04-21T13:28:14.651Z,3.65
2019-04-21T13:30:46.300Z,1.47
2019-04-21T13:33:16.464Z,2.08
2019-04-21T13:35:50.950Z,1.60
2019-04-21T13:38:32.610Z,1.40
2019-04-21T13:41:17.484Z,1.70
2019-04-21T13:43:37.137Z,1.67
2019-04-21T13:46:08.060Z,1.27
2019-04-21T13:48:38.331Z,1.45
2019-04-21T13:51:09.122Z,1.72
2019-04-21T13:53:41.789Z,1.80
2019-04-21T13:56:11.993Z,1.47
2019-04-21T13:58:42.310Z,1.80
2019-04-21T14:01:13.737Z,1.60
2019-04-21T14:03:44.118Z,1.57
2019-04-21T14:06:14.221Z,1.90
2019-04-21T14:08:45.373Z,1.98
2019-04-21T14:11:17.535Z,1.87
2019-04-21T14:13:48.268Z,1.98
2019-04-21T14:16:18.512Z,1.90
2019-04-21T14:18:49.616Z,1.67
2019-04-21T14:21:23.126Z,1.77
2019-04-21T14:23:53.925Z,2.15
2019-04-21T14:26:26.817Z,1.65
2019-04-21T14:28:57.046Z,1.90
2019-04-21T14:31:28.430Z,1.80
2019-04-21T14:34:00.166Z,1.90
2019-04-21T14:36:39.762Z,1.80
2019-04-21T14:39:24.488Z,1.47
2019-04-21T14:42:15.913Z,1.75
2019-04-21T14:45:30.691Z,1.82
2019-04-21T14:48:48.791Z,1.62
2019-04-21T15:02:03.913Z,1.60
2019-04-21T15:07:33.003Z,1.40
2019-04-21T15:10:36.810Z,1.70
2019-04-21T15:13:17.350Z,1.32
2019-04-21T15:13:35.557Z,1.80
2019-04-21T15:16:29.071Z,1.60
2019-04-21T15:19:20.449Z,1.75
2019-04-21T15:22:06.221Z,1.50
2019-04-21T15:24:38.295Z,1.50
2019-04-21T15:41:26.856Z,1.32
2019-04-21T15:47:04.034Z,1.50
2019-04-21T15:50:30.290Z,1.80
2019-04-21T15:56:40.432Z,1.62
2019-04-21T16:02:42.536Z,1.60
2019-04-21T16:05:16.920Z,1.60
2019-04-21T16:07:56.200Z,1.90
2019-04-21T16:10:43.426Z,1.37
2019-04-21T16:13:09.682Z,1.60
2019-04-21T16:18:34.235Z,1.90
2019-04-21T16:21:06.039Z,1.80
2019-04-21T16:23:40.510Z,1.90
2019-04-21T16:26:10.905Z,1.98
2019-04-21T16:28:41.681Z,1.82
2019-04-21T16:31:12.353Z,1.87
2019-04-21T16:33:43.222Z,2.60
2019-04-21T16:36:15.071Z,2.77
2019-04-21T16:38:49.368Z,2.73
2019-04-21T16:41:20.308Z,2.90
2019-04-21T16:43:51.379Z,3.50
2019-04-21T16:46:21.677Z,4.33
2019-04-21T16:48:53.749Z,5.55
2019-04-21T16:51:24.250Z,3.77
2019-04-21T16:54:01.915Z,3.53
2019-04-21T16:56:47.841Z,3.70
2019-04-21T16:59:26.464Z,3.63
2019-04-21T17:01:58.731Z,3.80
2019-04-21T17:04:36.210Z,3.70
2019-04-21T17:07:26.231Z,3.83
2019-04-21T17:09:56.843Z,4.00
2019-04-21T17:12:30.661Z,3.63
2019-04-21T17:15:18.737Z,3.83
2019-04-21T17:17:54.345Z,3.77
2019-04-21T17:20:21.551Z,4.43
2019-04-21T17:22:39.560Z,4.10
2019-04-21T17:25:10.841Z,3.60
2019-04-21T17:27:41.197Z,3.83
2019-04-21T17:30:12.930Z,3.70
2019-04-21T17:32:48.400Z,3.83
2019-04-21T18:18:05.182Z,3.47
2019-04-21T18:36:06.674Z,3.47
2019-04-21T18:43:35.638Z,3.27
2019-04-21T18:53:36.506Z,3.77
2019-04-21T18:57:49.924Z,3.70
2019-04-21T19:00:32.747Z,3.63
2019-04-21T19:03:39.880Z,2.97
2019-04-21T19:06:10.841Z,2.97
2019-04-21T19:08:59.223Z,3.23
2019-04-21T19:11:28.579Z,3.27
2019-04-21T19:14:28.494Z,3.00
2019-04-21T19:16:53.886Z,3.17
2019-04-21T19:21:58.711Z,2.67
2019-04-21T19:24:30.596Z,3.43
2019-04-21T19:27:03.203Z,3.30
2019-04-21T19:29:28.736Z,3.63
2019-04-21T19:32:03.983Z,3.63
2019-04-21T19:34:22.368Z,3.53
2019-04-21T19:36:52.004Z,3.53
2019-04-21T19:39:36.420Z,3.50
2019-04-21T19:42:00.308Z,3.93
2019-04-21T19:44:38.209Z,3.27
2019-04-21T19:47:10.532Z,3.80
2019-04-21T19:49:49.623Z,3.60
2019-04-21T19:52:05.279Z,4.10
2019-04-21T19:54:36.338Z,3.50
2019-04-21T19:57:02.892Z,3.53
2019-04-21T19:59:41.740Z,3.40
2019-04-21T20:02:06.935Z,3.43
2019-04-21T20:04:43.970Z,3.90
2019-04-21T20:07:24.398Z,4.23
2019-04-21T20:10:05.172Z,4.23
2019-04-21T20:12:36.926Z,4.27
2019-04-21T20:15:14.846Z,4.33
2019-04-21T20:17:34.786Z,4.17
2019-04-21T20:19:50.110Z,4.17
2019-04-21T20:22:23.995Z,5.00
2019-04-21T20:25:01.467Z,4.60
2019-04-21T20:27:36.236Z,4.33
2019-04-21T20:30:15.164Z,4.83
2019-04-21T20:32:49.108Z,4.20
2019-04-21T20:35:23.062Z,4.30
2019-04-21T20:37:47.712Z,4.30
2019-04-21T20:40:19.611Z,4.13
2019-04-21T20:42:50.961Z,4.70
2019-04-21T20:47:48.800Z,4.27
2019-04-21T20:50:29.849Z,4.40
2019-04-21T20:53:05.977Z,4.60
2019-04-21T20:55:35.404Z,4.73
2019-04-21T20:58:04.257Z,4.57
2019-04-21T21:00:54.503Z,4.83
2019-04-21T21:03:20.988Z,4.77
2019-04-21T21:05:42.426Z,4.60
2019-04-21T21:08:26.036Z,4.73
2019-04-21T21:10:53.247Z,4.47
2019-04-21T21:13:31.121Z,5.07
2019-04-21T21:16:11.929Z,4.33
2019-04-21T21:18:48.143Z,5.13
2019-04-21T21:21:04.857Z,5.00
2019-04-21T21:23:37.150Z,5.03
2019-04-21T21:26:11.471Z,4.90
2019-04-21T21:28:37.227Z,4.37
2019-04-21T21:31:13.216Z,4.80
2019-04-21T21:33:54.233Z,5.37
2019-04-21T21:36:28.612Z,5.30
2019-04-21T21:38:55.971Z,4.50
2019-04-21T21:41:13.821Z,4.80
2019-04-21T21:43:37.772Z,5.33
2019-04-21T21:46:26.646Z,5.20
2019-04-21T21:48:51.703Z,4.83
2019-04-21T21:51:20.455Z,4.53
2019-04-21T21:53:45.697Z,5.03
2019-04-21T21:56:26.864Z,4.60
2019-04-21T21:59:01.157Z,5.40
2019-04-21T22:01:38.002Z,6.07
2019-04-21T22:04:12.700Z,4.97
2019-04-21T22:06:44.653Z,4.90
2019-04-21T22:09:10.501Z,5.47
2019-04-21T22:11:42.218Z,5.03
2019-04-21T22:14:23.041Z,4.97
2019-04-21T22:17:06.186Z,4.73
2019-04-21T22:19:48.607Z,5.27
2019-04-21T22:22:09.598Z,4.77
2019-04-21T22:24:39.905Z,4.90
2019-04-21T22:26:55.322Z,5.13
2019-04-21T22:29:48.142Z,5.07
2019-04-21T22:32:20.892Z,4.93
2019-04-21T22:34:54.680Z,4.87
2019-04-21T22:37:35.024Z,5.03
2019-04-21T22:40:04.467Z,4.73
2019-04-21T22:42:32.064Z,5.00
2019-04-21T22:44:56.546Z,4.23
2019-04-21T22:47:32.619Z,4.90
2019-04-21T22:49:58.945Z,5.03
2019-04-21T22:52:30.478Z,5.03
2019-04-21T22:55:08.525Z,4.70
2019-04-21T22:57:41.696Z,5.17
2019-04-21T23:00:10.749Z,4.70
2019-04-21T23:02:39.292Z,4.50
2019-04-21T23:05:11.114Z,5.27
2019-04-21T23:07:51.228Z,5.47
2019-04-21T23:10:13.657Z,4.43
2019-04-21T23:12:44.016Z,4.37
2019-04-21T23:15:19.050Z,4.93
2019-04-21T23:18:06.496Z,5.13
2019-04-21T23:20:38.744Z,5.23
2019-04-21T23:23:11.886Z,5.37
2019-04-21T23:25:40.556Z,5.50
2019-04-21T23:28:10.119Z,5.03
2019-04-21T23:30:50.089Z,5.07
2019-04-21T23:33:06.062Z,4.80
2019-04-21T23:35:36.759Z,5.00
2019-04-21T23:38:05.370Z,5.07
2019-04-21T23:40:35.214Z,4.87
2019-04-21T23:43:09.576Z,4.90
2019-04-21T23:45:40.906Z,5.00
2019-04-21T23:48:23.554Z,5.10
2019-04-21T23:50:50.455Z,4.50
2019-04-21T23:53:13.266Z,4.77
2019-04-21T23:55:43.446Z,5.30
2019-04-21T23:58:21.604Z,5.90
